Time;durP1;ratioP1;P1;durP2;ratioP2;P2;SDS_P1;SDS_P2;PMS_P1;PMS_P2;Temp;Humidity;BMP_temperature;BMP_pressure;BME280_temperature;BME280_humidity;BME280_pressure;Samples;Min_cycle;Max_cycle;Signal;HPM_P1;HPM_P2
2023/01/26 00:01:36;;;;;;;39.05;14.38;;;1.20;99.90;;;;;;5049920;28;20097;-89
2023/01/26 00:04:01;;;;;;;40.85;15.45;;;0.70;99.90;;;;;;5050070;28;20132;-85
2023/01/26 00:06:27;;;;;;;35.70;14.68;;;0.60;99.90;;;;;;5051291;28;20202;-85
2023/01/26 00:08:55;;;;;;;47.38;16.30;;;0.90;99.90;;;;;;5051318;28;20067;-84
2023/01/26 00:11:25;;;;;;;43.45;15.95;;;0.60;99.90;;;;;;5033548;28;20134;-85
2023/01/26 00:13:52;;;;;;;39.38;15.40;;;-0.30;99.90;;;;;;5033591;28;20049;-85
2023/01/26 00:16:18;;;;;;;44.30;15.18;;;-0.20;99.90;;;;;;5049766;28;20053;-85
2023/01/26 00:18:44;;;;;;;38.25;15.02;;;0.10;99.90;;;;;;5049093;28;20041;-85
2023/01/26 00:21:14;;;;;;;40.35;15.15;;;0.90;99.90;;;;;;5048896;28;20131;-85
2023/01/26 00:23:40;;;;;;;40.50;14.00;;;-0.20;99.90;;;;;;5049227;28;20049;-86
2023/01/26 00:26:10;;;;;;;34.63;13.20;;;0.60;99.90;;;;;;5051138;28;20128;-86
2023/01/26 00:28:35;;;;;;;34.20;13.27;;;-0.10;99.90;;;;;;5051110;28;20182;-85
2023/01/26 00:31:03;;;;;;;33.67;13.25;;;-0.10;99.90;;;;;;5050698;28;20131;-86
2023/01/26 00:33:29;;;;;;;37.08;14.45;;;-0.10;99.90;;;;;;5032883;28;20272;-86
2023/01/26 00:35:55;;;;;;;36.30;13.13;;;0.10;99.90;;;;;;5050485;28;20110;-87
2023/01/26 00:38:21;;;;;;;37.50;14.38;;;0.30;99.90;;;;;;5049133;28;20717;-87
2023/01/26 00:40:46;;;;;;;38.38;13.63;;;1.10;99.90;;;;;;5050524;28;20079;-86
2023/01/26 00:43:12;;;;;;;40.78;15.07;;;-0.30;99.90;;;;;;5049068;28;20045;-86
2023/01/26 00:45:38;;;;;;;38.65;15.38;;;0.50;99.90;;;;;;5049668;28;20051;-86
2023/01/26 00:48:04;;;;;;;40.30;14.65;;;1.00;99.90;;;;;;5049875;28;20057;-86
2023/01/26 00:50:30;;;;;;;36.90;13.60;;;-0.10;99.90;;;;;;5050318;28;20475;-85
2023/01/26 00:52:56;;;;;;;43.60;14.93;;;-0.20;99.90;;;;;;5032378;28;20902;-87
2023/01/26 00:55:21;;;;;;;35.97;13.38;;;0.70;99.90;;;;;;5048874;28;20045;-87
2023/01/26 00:57:48;;;;;;;44.90;14.68;;;0.30;99.90;;;;;;5032463;28;20079;-90
2023/01/26 01:00:18;;;;;;;31.58;10.85;;;0.70;99.90;;;;;;5032829;28;20045;-90
2023/01/26 01:02:55;;;;;;;38.20;14.52;;;1.10;99.90;;;;;;5049846;28;20512;-89
2023/01/26 01:05:25;;;;;;;40.50;13.65;;;-0.40;99.90;;;;;;5048953;28;20077;-89
2023/01/26 01:07:51;;;;;;;37.13;13.60;;;-0.10;99.90;;;;;;5031858;28;20092;-89
2023/01/26 01:10:17;;;;;;;41.33;14.48;;;0.70;99.90;;;;;;5032093;28;20149;-87
2023/01/26 01:12:43;;;;;;;40.13;14.15;;;-0.10;99.90;;;;;;5049251;28;20052;-86
2023/01/26 01:15:09;;;;;;;46.08;14.85;;;-0.30;99.90;;;;;;5049029;28;20051;-87
2023/01/26 01:17:52;;;;;;;37.00;13.88;;;-0.10;99.90;;;;;;5048481;28;20052;-89
2023/01/26 01:20:20;;;;;;;34.42;12.95;;;1.10;99.90;;;;;;5032341;28;20380;-88
2023/01/26 01:22:46;;;;;;;36.13;12.93;;;-0.10;99.90;;;;;;5049108;28;20056;-91
2023/01/26 01:25:21;;;;;;;42.30;13.55;;;0.50;99.90;;;;;;5032653;28;20115;-89
2023/01/26 01:28:13;;;;;;;40.13;13.75;;;0.10;99.90;;;;;;5049004;28;20127;-88
2023/01/26 01:30:40;;;;;;;39.05;14.65;;;-0.90;99.90;;;;;;5011600;28;20497;-91
2023/01/26 01:33:08;;;;;;;38.67;13.63;;;0.70;99.90;;;;;;5027302;28;20101;-90
2023/01/26 01:35:41;;;;;;;39.65;14.32;;;0.80;99.90;;;;;;5027639;28;20406;-90
2023/01/26 01:38:10;;;;;;;37.20;12.93;;;0.50;99.90;;;;;;4968282;28;20039;-90
2023/01/26 01:40:42;;;;;;;39.30;14.27;;;-0.60;99.90;;;;;;4968793;28;20063;-91
2023/01/26 01:43:14;;;;;;;37.40;13.85;;;0.00;99.90;;;;;;4952434;28;20057;-89
2023/01/26 01:45:52;;;;;;;33.78;12.55;;;0.50;99.90;;;;;;4968722;28;20121;-89
2023/01/26 01:48:36;;;;;;;37.13;13.25;;;0.00;99.90;;;;;;4968454;28;20055;-88
2023/01/26 01:51:07;;;;;;;37.47;12.57;;;0.50;99.90;;;;;;4969062;28;20055;-89
2023/01/26 01:53:38;;;;;;;30.95;12.23;;;0.60;99.90;;;;;;4968742;28;20087;-88
2023/01/26 01:56:10;;;;;;;36.95;12.55;;;1.40;99.90;;;;;;4968702;28;20194;-90
2023/01/26 01:58:40;;;;;;;31.92;12.38;;;1.00;99.90;;;;;;4968494;28;20062;-88
2023/01/26 02:01:09;;;;;;;37.55;13.30;;;0.50;99.90;;;;;;4968830;28;20450;-89
2023/01/26 02:03:37;;;;;;;31.77;11.88;;;0.00;99.90;;;;;;4952205;28;20063;-89
2023/01/26 02:06:21;;;;;;;34.78;12.77;;;0.60;99.90;;;;;;4952317;28;20055;-88
2023/01/26 02:08:52;;;;;;;35.13;12.52;;;0.50;99.90;;;;;;4993091;28;20049;-88
2023/01/26 02:11:33;;;;;;;36.90;12.85;;;1.00;99.90;;;;;;5028459;28;20743;-89
2023/01/26 02:14:03;;;;;;;33.60;11.63;;;-0.50;99.90;;;;;;5028409;28;20120;-88
2023/01/26 02:16:32;;;;;;;31.92;11.10;;;0.80;99.90;;;;;;5029307;28;20126;-90
2023/01/26 02:19:00;;;;;;;34.85;11.75;;;0.90;99.90;;;;;;5047682;28;20056;-89
2023/01/26 02:21:26;;;;;;;29.25;11.55;;;1.20;99.90;;;;;;5048134;28;20049;-88
2023/01/26 02:24:22;;;;;;;32.53;12.88;;;1.20;99.90;;;;;;5048068;28;20057;-88
2023/01/26 02:26:48;;;;;;;30.02;10.52;;;0.10;99.90;;;;;;5046899;28;20064;-89
2023/01/26 02:29:14;;;;;;;35.78;12.43;;;0.70;99.90;;;;;;5048042;28;20045;-88
2023/01/26 02:31:40;;;;;;;34.78;12.30;;;-0.20;99.90;;;;;;5048315;28;20049;-90
2023/01/26 02:34:06;;;;;;;29.00;11.23;;;0.70;99.90;;;;;;5031147;28;20496;-89
2023/01/26 02:36:32;;;;;;;33.35;12.27;;;0.00;99.90;;;;;;5031542;28;20053;-89
2023/01/26 02:39:35;;;;;;;31.25;11.57;;;1.10;99.90;;;;;;5047763;28;20049;-89
2023/01/26 02:44:45;;;;;;;30.08;11.90;;;-0.20;99.90;;;;;;5051573;28;20585;-88
2023/01/26 02:47:16;;;;;;;30.65;11.48;;;0.80;99.90;;;;;;5052719;28;20028;-91
2023/01/26 02:49:45;;;;;;;29.55;11.23;;;1.20;99.90;;;;;;5034891;28;20053;-89
2023/01/26 02:52:11;;;;;;;29.10;11.50;;;0.90;99.90;;;;;;5034951;28;20036;-89
2023/01/26 02:57:21;;;;;;;35.50;12.45;;;1.10;99.90;;;;;;5050947;28;20059;-89
2023/01/26 02:59:47;;;;;;;32.72;12.05;;;0.00;99.90;;;;;;5034342;28;20045;-89
2023/01/26 03:02:14;;;;;;;30.83;11.43;;;0.60;99.90;;;;;;5018898;28;20049;-88
2023/01/26 03:04:41;;;;;;;33.33;11.95;;;0.80;99.90;;;;;;5015072;28;20055;-90
2023/01/26 03:07:06;;;;;;;33.00;12.38;;;1.10;99.90;;;;;;5026545;28;20056;-88
2023/01/26 03:09:34;;;;;;;34.35;12.13;;;1.20;99.90;;;;;;5051099;28;20048;-90
2023/01/26 03:12:00;;;;;;;33.70;11.65;;;1.20;99.90;;;;;;5034976;28;20056;-91
2023/01/26 03:14:29;;;;;;;34.85;13.05;;;1.00;99.90;;;;;;5034926;28;20045;-90
2023/01/26 03:17:26;;;;;;;34.97;12.63;;;1.20;99.90;;;;;;5034917;28;20091;-91
2023/01/26 03:28:27;;;;;;;35.15;12.93;;;1.00;99.90;;;;;;5051646;28;20060;-92
2023/01/26 03:31:15;;;;;;;32.17;11.73;;;0.30;99.90;;;;;;5019664;28;20053;-92
2023/01/26 03:33:57;;;;;;;38.35;12.90;;;1.20;99.90;;;;;;5014791;28;20053;-92
2023/01/26 03:37:22;;;;;;;40.63;13.10;;;1.60;99.90;;;;;;5014132;28;20515;-91
2023/01/26 03:57:28;;;;;;;34.10;13.13;;;1.60;99.90;;;;;;5050026;28;20056;-89
2023/01/26 03:59:54;;;;;;;38.22;13.02;;;1.60;99.90;;;;;;5049940;28;20128;-88
2023/01/26 04:10:32;;;;;;;34.92;13.63;;;1.30;99.90;;;;;;5050918;28;20072;-88
2023/01/26 04:21:32;;;;;;;36.88;13.02;;;0.80;99.90;;;;;;5050775;28;20045;-87
2023/01/26 04:23:58;;;;;;;38.20;12.63;;;0.60;99.90;;;;;;5050644;28;20049;-86
2023/01/26 04:26:38;;;;;;;36.60;12.65;;;0.30;99.90;;;;;;5050960;28;20102;-87
2023/01/26 04:29:06;;;;;;;35.03;13.52;;;0.50;99.90;;;;;;5050575;28;20048;-87
2023/01/26 04:31:32;;;;;;;36.63;12.95;;;0.50;99.90;;;;;;5050593;28;20041;-88
2023/01/26 04:34:06;;;;;;;40.85;14.75;;;1.30;99.90;;;;;;5032480;28;20851;-90
2023/01/26 04:36:33;;;;;;;37.63;12.73;;;1.50;99.90;;;;;;5013038;28;20583;-91
2023/01/26 04:39:11;;;;;;;37.92;14.07;;;1.50;99.90;;;;;;5018440;28;20057;-91
2023/01/26 04:41:43;;;;;;;34.38;13.23;;;0.80;99.90;;;;;;5015918;28;20053;-92
2023/01/26 04:44:11;;;;;;;41.70;14.10;;;0.10;99.90;;;;;;5045010;28;20132;-94
2023/01/26 04:46:37;;;;;;;37.60;13.45;;;0.50;99.90;;;;;;5030933;28;20045;-96
2023/01/26 04:49:16;;;;;;;;;;;;;;;;;;;;;
2023/01/26 04:55:24;;;;;;;35.28;13.23;;;0.30;99.90;;;;;;4989356;28;20047;-90
2023/01/26 04:57:50;;;;;;;37.53;13.18;;;0.40;99.90;;;;;;4956601;28;20118;-90
2023/01/26 05:00:16;;;;;;;34.30;13.65;;;-0.10;99.90;;;;;;4956323;28;20165;-88
2023/01/26 05:02:42;;;;;;;43.80;13.73;;;0.60;99.90;;;;;;4972010;28;20636;-88
2023/01/26 05:05:08;;;;;;;38.80;14.27;;;1.10;99.90;;;;;;4971521;28;20057;-88
2023/01/26 05:07:33;;;;;;;34.00;12.82;;;0.60;99.90;;;;;;4955423;28;20688;-88
2023/01/26 05:09:59;;;;;;;40.20;14.05;;;1.20;99.90;;;;;;4955718;28;20610;-89
2023/01/26 05:12:34;;;;;;;39.95;15.00;;;1.20;99.90;;;;;;4971837;28;20050;-88
2023/01/26 05:14:59;;;;;;;42.03;14.23;;;1.40;99.90;;;;;;4955880;28;20515;-88
2023/01/26 05:17:25;;;;;;;37.58;13.88;;;1.50;99.90;;;;;;4987408;28;20050;-87
2023/01/26 05:19:51;;;;;;;39.00;14.13;;;1.30;99.90;;;;;;4976248;28;20156;-87
2023/01/26 05:22:16;;;;;;;40.60;14.30;;;1.60;99.90;;;;;;4988200;28;20054;-87
2023/01/26 05:24:42;;;;;;;40.55;13.40;;;1.20;99.90;;;;;;4986627;28;20450;-87
2023/01/26 05:27:20;;;;;;;48.70;14.27;;;1.40;99.90;;;;;;5048319;28;20502;-86
2023/01/26 05:29:46;;;;;;;45.42;14.93;;;1.50;99.90;;;;;;5049287;28;20049;-86
2023/01/26 05:32:12;;;;;;;44.22;14.70;;;1.60;99.90;;;;;;5022158;28;20144;-86
2023/01/26 05:34:38;;;;;;;44.17;15.15;;;0.80;99.90;;;;;;5028623;28;20065;-87
2023/01/26 05:37:03;;;;;;;43.08;14.90;;;1.30;99.90;;;;;;5046334;28;20041;-87
2023/01/26 05:39:29;;;;;;;40.72;14.85;;;1.70;99.90;;;;;;5047693;28;20496;-87
2023/01/26 05:41:55;;;;;;;56.20;15.65;;;1.40;99.90;;;;;;5049730;28;20728;-87
2023/01/26 05:44:24;;;;;;;38.22;14.15;;;1.70;99.90;;;;;;5031856;28;20133;-87
2023/01/26 05:46:50;;;;;;;46.03;14.70;;;0.80;99.90;;;;;;5049236;28;20041;-87
2023/01/26 05:49:16;;;;;;;40.50;14.68;;;1.20;99.90;;;;;;5049318;28;20036;-87
2023/01/26 05:51:42;;;;;;;45.58;14.85;;;1.60;99.90;;;;;;5048095;28;20462;-87
2023/01/26 05:54:07;;;;;;;46.85;15.38;;;1.40;99.90;;;;;;5048216;28;20246;-88
2023/01/26 05:56:33;;;;;;;45.05;14.25;;;1.50;99.90;;;;;;5047462;28;20045;-88
2023/01/26 05:58:59;;;;;;;37.67;14.98;;;2.00;99.90;;;;;;5031769;28;20128;-87
2023/01/26 06:01:24;;;;;;;50.80;14.48;;;1.40;99.90;;;;;;5031287;28;20469;-87
2023/01/26 06:03:50;;;;;;;37.08;13.95;;;2.00;99.90;;;;;;5049189;28;20052;-87
2023/01/26 06:06:16;;;;;;;41.65;14.80;;;1.00;99.90;;;;;;5031446;28;20072;-87
2023/01/26 06:08:41;;;;;;;41.42;14.32;;;2.00;99.90;;;;;;5031571;28;20483;-87
2023/01/26 06:11:07;;;;;;;54.17;15.73;;;1.70;99.90;;;;;;5047831;28;20049;-87
2023/01/26 06:13:33;;;;;;;44.20;16.40;;;1.80;99.90;;;;;;5049562;28;20045;-87
2023/01/26 06:16:02;;;;;;;45.30;15.05;;;2.30;99.90;;;;;;5048893;28;20052;-85
2023/01/26 06:18:27;;;;;;;36.22;14.35;;;1.00;99.90;;;;;;5045819;28;20056;-86
2023/01/26 06:20:57;;;;;;;40.05;14.65;;;1.30;99.90;;;;;;5053375;28;20041;-87
2023/01/26 06:23:22;;;;;;;46.70;15.35;;;1.10;99.90;;;;;;5052178;28;20053;-88
2023/01/26 06:25:50;;;;;;;36.70;13.43;;;1.80;99.90;;;;;;5042788;28;20048;-87
2023/01/26 06:28:18;;;;;;;37.50;14.55;;;1.90;99.90;;;;;;5015189;28;20045;-87
2023/01/26 06:30:44;;;;;;;38.78;13.13;;;1.80;99.90;;;;;;5049465;28;20430;-87
2023/01/26 06:33:10;;;;;;;37.83;13.70;;;1.30;99.90;;;;;;5051741;28;20041;-86
2023/01/26 06:35:36;;;;;;;39.00;13.70;;;1.00;99.90;;;;;;5034854;28;20510;-87
2023/01/26 06:38:02;;;;;;;38.47;13.48;;;1.30;99.90;;;;;;5052597;28;20041;-86
2023/01/26 06:40:28;;;;;;;39.15;13.38;;;1.40;99.90;;;;;;5052650;28;20049;-86
2023/01/26 06:42:54;;;;;;;45.35;13.77;;;1.00;99.90;;;;;;5034917;28;20105;-86
2023/01/26 06:45:19;;;;;;;45.63;14.23;;;1.10;99.90;;;;;;5034479;28;20044;-86
2023/01/26 06:47:46;;;;;;;42.42;14.63;;;1.90;99.90;;;;;;5052360;28;20128;-86
2023/01/26 06:50:14;;;;;;;36.65;12.93;;;2.00;99.90;;;;;;5051023;28;20549;-86
2023/01/26 06:52:43;;;;;;;41.95;14.52;;;1.30;99.90;;;;;;5032970;28;20045;-87
2023/01/26 06:55:25;;;;;;;47.00;13.77;;;1.60;99.90;;;;;;5046907;28;20061;-86
2023/01/26 06:57:51;;;;;;;49.17;15.07;;;1.30;99.90;;;;;;5052470;28;20057;-87
2023/01/26 07:00:18;;;;;;;41.00;13.52;;;1.20;99.90;;;;;;5034235;28;20052;-87
2023/01/26 07:02:43;;;;;;;46.67;14.55;;;1.40;99.90;;;;;;5066753;28;20124;-87
2023/01/26 07:05:09;;;;;;;61.35;15.05;;;1.80;99.90;;;;;;5051049;28;20132;-87
2023/01/26 07:07:35;;;;;;;43.45;14.00;;;2.00;99.90;;;;;;5052289;28;20041;-87
2023/01/26 07:10:02;;;;;;;53.97;15.18;;;2.20;99.90;;;;;;5050756;28;20544;-87
2023/01/26 07:12:38;;;;;;;52.22;14.95;;;2.10;99.90;;;;;;5050659;28;20041;-87
2023/01/26 07:15:04;;;;;;;42.20;14.60;;;1.90;99.90;;;;;;5050306;28;20056;-86
2023/01/26 07:17:30;;;;;;;47.58;14.75;;;1.50;99.90;;;;;;5031584;28;20046;-87
2023/01/26 07:19:56;;;;;;;46.05;14.68;;;1.70;99.90;;;;;;5048602;28;20076;-87
2023/01/26 07:22:22;;;;;;;48.65;13.93;;;1.80;99.90;;;;;;5033831;28;20090;-87
2023/01/26 07:24:47;;;;;;;45.30;13.77;;;1.50;99.90;;;;;;5049717;28;20048;-88
2023/01/26 07:27:13;;;;;;;55.60;15.57;;;1.80;99.90;;;;;;5050710;28;20048;-87
2023/01/26 07:29:39;;;;;;;57.35;15.85;;;1.50;99.90;;;;;;5050291;28;20045;-87
2023/01/26 07:32:05;;;;;;;48.75;14.80;;;2.40;99.90;;;;;;5050427;28;20066;-87
2023/01/26 07:34:31;;;;;;;55.33;14.65;;;2.40;99.90;;;;;;5060164;28;20044;-86
2023/01/26 07:36:56;;;;;;;49.97;13.35;;;2.10;99.90;;;;;;5058237;28;20060;-87
2023/01/26 07:39:22;;;;;;;42.45;11.98;;;2.60;99.90;;;;;;5070598;28;20457;-87
2023/01/26 07:41:48;;;;;;;45.70;11.02;;;2.40;99.90;;;;;;5064436;28;20057;-87
2023/01/26 07:44:14;;;;;;;61.65;12.73;;;2.20;99.90;;;;;;5051926;28;20114;-87
2023/01/26 07:46:40;;;;;;;43.70;10.93;;;1.80;99.90;;;;;;5049605;28;20473;-86
2023/01/26 07:49:06;;;;;;;50.10;10.43;;;1.60;99.90;;;;;;5043998;28;20045;-84
2023/01/26 07:51:32;;;;;;;37.67;9.80;;;1.70;99.90;;;;;;5033652;28;20045;-87
2023/01/26 07:53:58;;;;;;;60.63;12.55;;;2.40;99.90;;;;;;5048754;28;20111;-84
2023/01/26 07:56:24;;;;;;;40.25;10.98;;;2.30;99.90;;;;;;5050505;28;20414;-85
2023/01/26 07:58:51;;;;;;;34.85;11.30;;;1.40;99.90;;;;;;5059865;22;20056;-86
2023/01/26 08:01:17;;;;;;;48.08;12.90;;;2.40;99.90;;;;;;5072133;28;20613;-89
2023/01/26 08:03:44;;;;;;;46.88;11.23;;;2.30;99.90;;;;;;5069258;28;20040;-86
2023/01/26 08:06:11;;;;;;;48.28;10.82;;;2.20;99.90;;;;;;5071254;28;20123;-85
2023/01/26 08:08:40;;;;;;;48.78;10.88;;;1.70;99.90;;;;;;5049995;28;20061;-85
2023/01/26 08:11:06;;;;;;;33.92;9.80;;;2.20;99.90;;;;;;5060362;28;20040;-85
2023/01/26 08:14:13;;;;;;;43.97;8.00;;;1.00;99.90;;;;;;5069940;28;20033;-86
2023/01/26 08:20:31;;;;;;;50.95;7.88;;;2.50;99.90;;;;;;5057602;22;20057;-85
2023/01/26 08:22:57;;;;;;;34.00;6.88;;;1.60;99.90;;;;;;5016496;28;20045;-87
2023/01/26 08:25:23;;;;;;;40.55;7.25;;;2.70;99.90;;;;;;5032648;28;20399;-87
2023/01/26 08:27:48;;;;;;;47.05;7.95;;;2.60;99.90;;;;;;5049951;28;20045;-86
2023/01/26 08:30:15;;;;;;;30.00;7.18;;;2.00;99.90;;;;;;5028669;28;20060;-85
2023/01/26 08:32:40;;;;;;;32.22;7.45;;;2.00;99.90;;;;;;5032202;28;20048;-84
2023/01/26 08:35:06;;;;;;;29.00;7.57;;;2.70;99.90;;;;;;5029678;28;20048;-85
2023/01/26 08:37:33;;;;;;;36.65;7.70;;;2.10;99.90;;;;;;5060444;28;20175;-87
2023/01/26 08:39:58;;;;;;;36.20;7.53;;;2.60;99.90;;;;;;5031619;28;20045;-85
2023/01/26 08:42:40;;;;;;;;;;;;;;;;;;;;;
2023/01/26 08:45:25;;;;;;;42.92;7.03;;;1.50;99.90;;;;;;5014896;23;20064;-86
2023/01/26 08:47:51;;;;;;;45.72;7.28;;;2.60;99.90;;;;;;5042862;28;20049;-86
2023/01/26 08:50:20;;;;;;;33.95;5.68;;;2.60;99.90;;;;;;5027022;28;20088;-85
2023/01/26 08:52:45;;;;;;;35.30;5.40;;;2.30;99.90;;;;;;5030198;28;20057;-86
2023/01/26 08:55:11;;;;;;;34.67;5.35;;;2.90;99.90;;;;;;5029852;28;20135;-85
2023/01/26 08:57:37;;;;;;;39.50;5.50;;;3.40;99.90;;;;;;5027017;28;20055;-86
2023/01/26 09:00:03;;;;;;;50.90;6.43;;;3.30;99.90;;;;;;5027247;28;20052;-85
2023/01/26 09:02:29;;;;;;;46.38;5.10;;;2.60;99.90;;;;;;5008977;28;20053;-88
2023/01/26 09:04:54;;;;;;;43.78;5.75;;;3.40;99.90;;;;;;5008425;28;20049;-86
2023/01/26 09:07:20;;;;;;;50.83;5.35;;;3.50;99.90;;;;;;5022028;28;20055;-85
2023/01/26 09:09:46;;;;;;;40.60;4.38;;;3.80;99.90;;;;;;5026610;28;20140;-85
2023/01/26 09:12:12;;;;;;;33.65;5.07;;;3.80;99.90;;;;;;5028533;28;20049;-87
2023/01/26 09:14:37;;;;;;;32.03;5.15;;;3.60;99.90;;;;;;5030409;28;20057;-87
2023/01/26 09:17:03;;;;;;;46.20;5.55;;;4.10;99.90;;;;;;5012566;28;20111;-86
2023/01/26 09:19:28;;;;;;;38.10;4.70;;;4.20;99.90;;;;;;5029364;28;20069;-87
2023/01/26 09:21:54;;;;;;;52.88;5.15;;;4.30;99.90;;;;;;5029424;28;20049;-89
2023/01/26 09:24:21;;;;;;;47.97;5.25;;;4.60;99.90;;;;;;5029396;28;20045;-88
2023/01/26 09:26:47;;;;;;;33.72;4.55;;;4.20;99.90;;;;;;5012833;28;20059;-89
2023/01/26 09:29:14;;;;;;;56.90;6.18;;;3.90;99.90;;;;;;5028920;28;20057;-87
2023/01/26 09:31:39;;;;;;;43.63;5.00;;;4.90;99.90;;;;;;5012770;28;20053;-86
2023/01/26 09:34:05;;;;;;;42.38;4.53;;;4.90;99.90;;;;;;5029588;28;20400;-88
2023/01/26 09:36:32;;;;;;;43.53;4.47;;;4.80;99.90;;;;;;5030663;28;20056;-87
2023/01/26 09:38:58;;;;;;;46.03;4.50;;;4.30;99.90;;;;;;5012728;28;20057;-86
2023/01/26 09:41:51;;;;;;;35.08;5.57;;;5.10;99.90;;;;;;5029238;28;20060;-88
2023/01/26 09:44:25;;;;;;;54.88;4.97;;;4.60;99.90;;;;;;5009177;28;20054;-88
2023/01/26 09:47:19;;;;;;;36.37;4.00;;;5.70;99.90;;;;;;5013045;28;20049;-87
2023/01/26 09:50:03;;;;;;;40.63;4.53;;;5.00;99.90;;;;;;5012401;28;20457;-86
2023/01/26 09:52:55;;;;;;;46.10;4.90;;;5.20;99.90;;;;;;5032277;28;20053;-85
2023/01/26 09:58:38;;;;;;;44.70;5.68;;;5.60;99.90;;;;;;5119601;22;20415;-85
2023/01/26 10:01:20;;;;;;;50.67;4.57;;;5.80;99.90;;;;;;4974354;28;20089;-86
2023/01/26 10:07:36;;;;;;;47.65;5.30;;;6.30;99.90;;;;;;5150958;22;20068;-86
2023/01/26 10:17:21;;;;;;;33.55;4.35;;;6.60;99.90;;;;;;5030120;22;20140;-87
2023/01/26 10:20:07;;;;;;;35.92;3.80;;;7.40;99.90;;;;;;4997087;28;20054;-87
2023/01/26 10:22:49;;;;;;;43.17;3.80;;;6.90;99.90;;;;;;5016216;28;20567;-88
2023/01/26 10:25:26;;;;;;;28.77;4.15;;;7.30;99.90;;;;;;5014689;28;20079;-87
2023/01/26 10:27:53;;;;;;;36.17;4.03;;;7.20;99.90;;;;;;4996634;28;20044;-88
2023/01/26 10:30:21;;;;;;;35.05;3.92;;;7.30;99.90;;;;;;5033541;28;20120;-87
2023/01/26 10:32:53;;;;;;;43.58;4.20;;;8.00;99.90;;;;;;4999747;28;20041;-90
2023/01/26 10:35:21;;;;;;;36.97;3.63;;;8.00;99.90;;;;;;5016193;28;20041;-87
2023/01/26 10:37:55;;;;;;;30.75;3.88;;;7.30;99.90;;;;;;5016093;28;20053;-88
2023/01/26 10:40:21;;;;;;;26.67;3.65;;;8.10;99.90;;;;;;4999218;28;20112;-88
2023/01/26 10:42:58;;;;;;;30.52;3.75;;;7.30;99.90;;;;;;5015503;28;20492;-89
2023/01/26 10:45:35;;;;;;;30.58;3.63;;;7.20;99.90;;;;;;4998996;28;20593;-87
2023/01/26 10:48:20;;;;;;;29.90;3.85;;;7.20;99.90;;;;;;5033638;28;20107;-89
2023/01/26 10:50:49;;;;;;;;;;;7.20;99.90;;;;;;4982365;28;20054;-90
2023/01/26 10:53:28;;;;;;;35.50;3.75;;;7.20;99.90;;;;;;4996067;28;19921;-88
2023/01/26 10:56:03;;;;;;;33.33;3.45;;;7.30;99.90;;;;;;4979154;28;20057;-87
2023/01/26 10:58:48;;;;;;;30.73;3.38;;;7.30;99.90;;;;;;4989332;28;20547;-86
2023/01/26 11:01:17;;;;;;;;;;;7.50;99.90;;;;;;4992729;28;20064;-87
2023/01/26 11:04:01;;;;;;;33.75;4.25;;;7.70;99.90;;;;;;5016817;28;19925;-86
2023/01/26 11:06:28;;;;;;;25.90;3.25;;;7.40;99.90;;;;;;5012752;28;20050;-86
2023/01/26 11:09:10;;;;;;;21.80;2.80;;;8.10;99.90;;;;;;5001700;28;20042;-89
2023/01/26 11:11:36;;;;;;;28.50;3.22;;;8.60;99.90;;;;;;5014649;28;20515;-86
2023/01/26 11:14:17;;;;;;;32.03;3.22;;;8.20;99.90;;;;;;5022864;28;20049;-90
2023/01/26 11:17:08;;;;;;;21.60;3.75;;;9.10;99.90;;;;;;5039754;28;20050;-85
2023/01/26 11:20:06;;;;;;;29.50;3.47;;;8.50;99.90;;;;;;5031435;28;20060;-85
2023/01/26 11:23:02;;;;;;;28.92;2.85;;;8.60;99.90;;;;;;4916924;29;20458;-87
2023/01/26 11:33:38;;;;;;;22.45;2.90;;;8.90;99.90;;;;;;5037615;22;20582;-86
2023/01/26 11:36:33;;;;;;;25.33;3.13;;;9.10;99.90;;;;;;4997627;28;20041;-86
2023/01/26 11:39:14;;;;;;;17.48;2.40;;;9.30;99.90;;;;;;4979235;28;20046;-87
2023/01/26 11:41:59;;;;;;;21.65;2.80;;;9.40;99.90;;;;;;4994409;28;20054;-89
2023/01/26 11:44:54;;;;;;;19.23;2.55;;;9.50;99.90;;;;;;5004502;28;20045;-87
2023/01/26 11:47:44;;;;;;;29.67;4.03;;;9.50;99.90;;;;;;5051781;28;20555;-87
2023/01/26 11:50:39;;;;;;;20.27;2.42;;;9.50;99.90;;;;;;5040860;28;20327;-86
2023/01/26 11:53:23;;;;;;;18.50;2.55;;;10.00;99.90;;;;;;4993049;28;20500;-87
2023/01/26 11:56:25;;;;;;;27.52;3.28;;;9.20;99.90;;;;;;5024760;28;20050;-88
2023/01/26 11:59:27;;;;;;;17.80;3.22;;;9.30;99.90;;;;;;5005277;28;20136;-89
2023/01/26 12:02:29;;;;;;;20.33;2.65;;;9.30;99.90;;;;;;5030507;28;20048;-88
2023/01/26 12:05:04;;;;;;;19.48;3.42;;;9.10;99.90;;;;;;5029871;28;20049;-88
2023/01/26 12:07:50;;;;;;;18.88;2.80;;;9.80;99.90;;;;;;5015182;28;20069;-88
2023/01/26 12:10:29;;;;;;;14.70;2.22;;;9.20;99.90;;;;;;5033299;28;20129;-90
2023/01/26 12:13:19;;;;;;;26.90;3.25;;;8.90;99.90;;;;;;5031866;28;20057;-88
2023/01/26 12:15:52;;;;;;;21.92;2.58;;;8.80;99.90;;;;;;5015850;28;20500;-87
2023/01/26 12:18:33;;;;;;;22.40;2.30;;;8.90;99.90;;;;;;5032727;28;20099;-87
2023/01/26 12:21:09;;;;;;;19.95;2.50;;;8.70;99.90;;;;;;5033545;28;20048;-89
2023/01/26 12:23:55;;;;;;;25.10;2.45;;;8.50;99.90;;;;;;5032960;28;20522;-87
2023/01/26 12:26:27;;;;;;;16.42;2.20;;;8.20;99.90;;;;;;5013394;28;20053;-89
2023/01/26 12:29:14;;;;;;;15.80;2.42;;;8.40;99.90;;;;;;5017484;28;20594;-88
2023/01/26 12:32:16;;;;;;;19.70;2.47;;;8.40;99.90;;;;;;5025659;28;20057;-87
2023/01/26 12:34:53;;;;;;;19.08;2.03;;;8.30;99.90;;;;;;5030907;23;20413;-91
2023/01/26 12:37:50;;;;;;;17.27;2.28;;;8.30;99.90;;;;;;4991913;28;20050;-90
2023/01/26 12:40:59;;;;;;;20.67;2.35;;;8.40;99.90;;;;;;4983217;28;20041;-88
2023/01/26 12:44:16;;;;;;;11.55;1.63;;;8.40;99.90;;;;;;4998145;23;20595;-90
2023/01/26 12:46:49;;;;;;;20.45;1.90;;;8.40;99.90;;;;;;5013427;28;20132;-87
2023/01/26 12:49:57;;;;;;;12.63;1.88;;;8.40;99.90;;;;;;4996335;28;20049;-89
2023/01/26 12:52:22;;;;;;;12.25;1.50;;;8.00;99.90;;;;;;4997307;28;20060;-87
2023/01/26 12:55:19;;;;;;;12.32;1.58;;;8.40;99.90;;;;;;5030908;28;20416;-90
2023/01/26 12:57:56;;;;;;;13.00;2.35;;;9.00;99.90;;;;;;5012625;28;20057;-88
2023/01/26 13:00:28;;;;;;;10.43;1.33;;;8.80;99.90;;;;;;5012802;28;20492;-88
2023/01/26 13:03:15;;;;;;;9.70;1.60;;;8.20;99.90;;;;;;4999229;28;20055;-86
2023/01/26 13:06:01;;;;;;;13.40;1.83;;;9.00;99.90;;;;;;5009525;28;20104;-86
2023/01/26 13:08:53;;;;;;;14.60;1.40;;;8.20;99.90;;;;;;5030186;28;20403;-86
2023/01/26 13:11:40;;;;;;;16.83;2.42;;;8.20;99.90;;;;;;5012629;28;20064;-86
2023/01/26 13:14:33;;;;;;;10.93;1.90;;;8.10;99.90;;;;;;4995270;28;20069;-86
2023/01/26 13:17:14;;;;;;;17.80;2.22;;;7.80;99.90;;;;;;4995179;28;20053;-87
2023/01/26 13:19:42;;;;;;;15.75;1.98;;;8.80;99.90;;;;;;5028699;28;20034;-86
2023/01/26 13:22:17;;;;;;;12.00;1.52;;;8.60;99.90;;;;;;4996579;28;20092;-88
2023/01/26 13:24:48;;;;;;;14.40;2.10;;;7.90;99.90;;;;;;5012199;28;20053;-87
2023/01/26 13:27:32;;;;;;;13.60;2.15;;;7.90;99.90;;;;;;5012184;28;20045;-87
2023/01/26 13:30:37;;;;;;;17.52;2.42;;;8.50;99.90;;;;;;5012190;28;20095;-90
2023/01/26 13:33:33;;;;;;;11.50;1.55;;;7.80;99.90;;;;;;5011899;28;20504;-87
2023/01/26 13:36:04;;;;;;;16.23;2.08;;;7.80;99.90;;;;;;4994411;28;20128;-87
2023/01/26 13:39:12;;;;;;;17.48;1.48;;;7.30;99.90;;;;;;5029905;28;20056;-87
2023/01/26 13:41:51;;;;;;;11.65;1.40;;;7.20;99.90;;;;;;5011807;28;20775;-87
2023/01/26 13:44:44;;;;;;;13.85;1.60;;;7.70;99.90;;;;;;5011970;28;20805;-87
2023/01/26 13:47:42;;;;;;;13.60;2.08;;;8.30;99.90;;;;;;5029221;28;20055;-89
2023/01/26 13:50:31;;;;;;;16.27;1.83;;;8.40;99.90;;;;;;5011670;28;20598;-87
2023/01/26 13:52:57;;;;;;;13.63;1.92;;;7.50;99.90;;;;;;5012362;28;20057;-87
2023/01/26 13:55:43;;;;;;;16.52;1.65;;;8.30;99.90;;;;;;5012311;28;20486;-87
2023/01/26 13:58:17;;;;;;;11.40;1.88;;;8.10;99.90;;;;;;4914499;29;20071;-87
2023/01/26 14:00:58;;;;;;;12.60;1.90;;;8.10;99.90;;;;;;4914319;29;20070;-87
2023/01/26 14:03:23;;;;;;;11.85;1.40;;;7.90;99.90;;;;;;4914395;29;20086;-89
2023/01/26 14:06:00;;;;;;;15.32;2.05;;;8.40;99.90;;;;;;4914155;29;20050;-88
2023/01/26 14:08:26;;;;;;;10.23;1.42;;;7.40;99.90;;;;;;4914617;29;20461;-87
2023/01/26 14:10:55;;;;;;;14.70;2.38;;;8.30;99.90;;;;;;4929846;29;20055;-87
2023/01/26 14:13:37;;;;;;;17.35;2.15;;;6.90;99.90;;;;;;4913558;29;20059;-87
2023/01/26 14:16:05;;;;;;;13.98;2.00;;;8.00;99.90;;;;;;4930003;29;20067;-87
2023/01/26 14:18:31;;;;;;;12.68;1.70;;;7.20;99.90;;;;;;4913966;29;20507;-90
2023/01/26 14:20:58;;;;;;;12.73;1.75;;;7.20;99.90;;;;;;4913970;29;20059;-87
2023/01/26 14:23:28;;;;;;;12.98;2.00;;;8.00;99.90;;;;;;4897968;29;20091;-89
2023/01/26 14:26:03;;;;;;;12.63;2.05;;;7.20;99.90;;;;;;4929273;29;20058;-88
2023/01/26 14:28:33;;;;;;;19.52;2.90;;;7.20;99.90;;;;;;4949575;28;20061;-87
2023/01/26 14:31:24;;;;;;;17.67;2.70;;;7.90;99.90;;;;;;5028263;28;20041;-87